sensor_id;sensor_type;location;lat;lon;timestamp;pressure;altitude;pressure_sealevel;temperature;humidity
77147;BME280;66121;52.584;9.694;2023-03-14T00:00:26;98701.22;;;11.01;74.06
77147;BME280;66121;52.584;9.694;2023-03-14T00:02:54;98699.50;;;10.91;74.77
77147;BME280;66121;52.584;9.694;2023-03-14T00:05:20;98699.06;;;10.92;74.26
77147;BME280;66121;52.584;9.694;2023-03-14T00:07:45;98697.28;;;10.86;74.52
77147;BME280;66121;52.584;9.694;2023-03-14T00:10:14;98681.13;;;10.84;74.30
77147;BME280;66121;52.584;9.694;2023-03-14T00:12:40;98669.63;;;11.02;73.65
77147;BME280;66121;52.584;9.694;2023-03-14T00:15:07;98649.47;;;11.05;73.50
77147;BME280;66121;52.584;9.694;2023-03-14T00:17:33;98634.75;;;10.95;73.60
77147;BME280;66121;52.584;9.694;2023-03-14T00:19:59;98640.47;;;10.88;73.72
77147;BME280;66121;52.584;9.694;2023-03-14T00:22:42;98629.47;;;11.01;73.13
77147;BME280;66121;52.584;9.694;2023-03-14T00:25:09;98627.78;;;10.91;73.58
77147;BME280;66121;52.584;9.694;2023-03-14T00:27:35;98635.34;;;10.87;73.68
77147;BME280;66121;52.584;9.694;2023-03-14T00:30:02;98636.59;;;10.86;73.75
77147;BME280;66121;52.584;9.694;2023-03-14T00:32:27;98648.41;;;10.86;73.48
77147;BME280;66121;52.584;9.694;2023-03-14T00:34:53;98653.22;;;10.82;73.99
77147;BME280;66121;52.584;9.694;2023-03-14T00:37:18;98655.19;;;10.98;73.05
77147;BME280;66121;52.584;9.694;2023-03-14T00:39:43;98665.19;;;10.92;73.28
77147;BME280;66121;52.584;9.694;2023-03-14T00:42:09;98662.09;;;10.90;73.46
77147;BME280;66121;52.584;9.694;2023-03-14T00:44:34;98669.50;;;10.93;73.14
77147;BME280;66121;52.584;9.694;2023-03-14T00:46:59;98671.91;;;10.91;73.74
77147;BME280;66121;52.584;9.694;2023-03-14T00:49:25;98681.56;;;10.99;73.21
77147;BME280;66121;52.584;9.694;2023-03-14T00:51:50;98669.63;;;11.02;73.02
77147;BME280;66121;52.584;9.694;2023-03-14T00:54:17;98672.63;;;11.24;72.27
77147;BME280;66121;52.584;9.694;2023-03-14T00:56:42;98674.94;;;11.25;72.20
77147;BME280;66121;52.584;9.694;2023-03-14T00:59:07;98672.81;;;11.17;72.38
77147;BME280;66121;52.584;9.694;2023-03-14T01:01:32;98666.41;;;11.20;72.56
77147;BME280;66121;52.584;9.694;2023-03-14T01:03:58;98662.72;;;11.10;72.73
77147;BME280;66121;52.584;9.694;2023-03-14T01:06:26;98662.31;;;11.12;72.83
77147;BME280;66121;52.584;9.694;2023-03-14T01:08:52;98630.63;;;10.87;73.55
77147;BME280;66121;52.584;9.694;2023-03-14T01:11:23;98628.34;;;10.98;73.01
77147;BME280;66121;52.584;9.694;2023-03-14T01:13:49;98610.94;;;11.02;72.86
77147;BME280;66121;52.584;9.694;2023-03-14T01:16:15;98623.75;;;11.08;72.88
77147;BME280;66121;52.584;9.694;2023-03-14T01:18:42;98608.59;;;11.00;72.89
77147;BME280;66121;52.584;9.694;2023-03-14T01:21:23;98608.44;;;11.20;72.34
77147;BME280;66121;52.584;9.694;2023-03-14T01:23:50;98614.41;;;11.18;72.44
77147;BME280;66121;52.584;9.694;2023-03-14T01:26:18;98623.47;;;11.19;72.34
77147;BME280;66121;52.584;9.694;2023-03-14T01:28:45;98604.97;;;11.03;73.00
77147;BME280;66121;52.584;9.694;2023-03-14T01:31:11;98606.00;;;11.09;72.74
77147;BME280;66121;52.584;9.694;2023-03-14T01:33:36;98595.03;;;11.06;73.14
77147;BME280;66121;52.584;9.694;2023-03-14T01:36:02;98611.19;;;11.20;72.83
77147;BME280;66121;52.584;9.694;2023-03-14T01:38:29;98623.56;;;11.15;72.88
77147;BME280;66121;52.584;9.694;2023-03-14T01:40:55;98604.44;;;11.08;73.24
77147;BME280;66121;52.584;9.694;2023-03-14T01:43:21;98605.63;;;11.07;72.98
77147;BME280;66121;52.584;9.694;2023-03-14T01:49:07;98624.41;;;11.12;73.13
77147;BME280;66121;52.584;9.694;2023-03-14T01:52:02;98608.75;;;11.09;73.22
77147;BME280;66121;52.584;9.694;2023-03-14T01:54:35;98587.88;;;11.08;73.00
77147;BME280;66121;52.584;9.694;2023-03-14T01:57:32;98566.03;;;11.14;73.17
77147;BME280;66121;52.584;9.694;2023-03-14T02:00:04;98561.72;;;11.13;73.18
77147;BME280;66121;52.584;9.694;2023-03-14T02:02:44;98556.19;;;11.13;73.10
77147;BME280;66121;52.584;9.694;2023-03-14T02:05:12;98562.06;;;11.15;72.93
77147;BME280;66121;52.584;9.694;2023-03-14T02:07:49;98566.34;;;11.03;73.67
77147;BME280;66121;52.584;9.694;2023-03-14T02:10:16;98570.53;;;11.08;73.30
77147;BME280;66121;52.584;9.694;2023-03-14T02:12:44;98584.53;;;11.00;73.68
77147;BME280;66121;52.584;9.694;2023-03-14T02:15:10;98573.16;;;10.98;73.04
77147;BME280;66121;52.584;9.694;2023-03-14T02:17:35;98591.84;;;11.07;73.19
77147;BME280;66121;52.584;9.694;2023-03-14T02:22:35;98582.84;;;11.19;72.76
77147;BME280;66121;52.584;9.694;2023-03-14T02:27:37;98601.81;;;11.17;73.07
77147;BME280;66121;52.584;9.694;2023-03-14T02:30:12;98598.63;;;11.19;72.68
77147;BME280;66121;52.584;9.694;2023-03-14T02:32:41;98584.50;;;11.29;72.46
77147;BME280;66121;52.584;9.694;2023-03-14T02:35:11;98588.38;;;11.32;72.57
77147;BME280;66121;52.584;9.694;2023-03-14T02:37:50;98593.34;;;11.24;72.59
77147;BME280;66121;52.584;9.694;2023-03-14T02:40:17;98584.16;;;11.27;72.30
77147;BME280;66121;52.584;9.694;2023-03-14T02:42:42;98581.88;;;11.38;71.49
77147;BME280;66121;52.584;9.694;2023-03-14T02:47:33;98560.88;;;11.28;72.06
77147;BME280;66121;52.584;9.694;2023-03-14T02:50:03;98564.75;;;11.31;71.57
77147;BME280;66121;52.584;9.694;2023-03-14T02:52:29;98557.91;;;11.35;71.69
77147;BME280;66121;52.584;9.694;2023-03-14T02:54:54;98554.00;;;11.20;71.98
77147;BME280;66121;52.584;9.694;2023-03-14T02:57:19;98558.31;;;11.21;71.96
77147;BME280;66121;52.584;9.694;2023-03-14T02:59:45;98569.16;;;11.28;71.45
77147;BME280;66121;52.584;9.694;2023-03-14T03:02:10;98555.56;;;11.21;71.97
77147;BME280;66121;52.584;9.694;2023-03-14T03:04:35;98563.19;;;11.30;71.66
77147;BME280;66121;52.584;9.694;2023-03-14T03:07:01;98554.56;;;11.28;71.27
77147;BME280;66121;52.584;9.694;2023-03-14T03:09:27;98532.03;;;11.17;71.96
77147;BME280;66121;52.584;9.694;2023-03-14T03:11:52;98544.94;;;11.20;72.03
77147;BME280;66121;52.584;9.694;2023-03-14T03:14:17;98549.72;;;11.19;72.05
77147;BME280;66121;52.584;9.694;2023-03-14T03:16:42;98540.75;;;11.15;72.18
77147;BME280;66121;52.584;9.694;2023-03-14T03:19:08;98526.84;;;11.19;72.04
77147;BME280;66121;52.584;9.694;2023-03-14T03:21:33;98528.06;;;11.18;71.60
77147;BME280;66121;52.584;9.694;2023-03-14T03:23:59;98526.16;;;11.15;72.15
77147;BME280;66121;52.584;9.694;2023-03-14T03:26:25;98530.28;;;11.23;71.58
77147;BME280;66121;52.584;9.694;2023-03-14T03:28:51;98517.56;;;11.13;71.94
77147;BME280;66121;52.584;9.694;2023-03-14T03:31:16;98526.81;;;11.06;72.93
77147;BME280;66121;52.584;9.694;2023-03-14T03:33:42;98512.50;;;11.24;71.38
77147;BME280;66121;52.584;9.694;2023-03-14T03:36:08;98514.59;;;11.32;71.27
77147;BME280;66121;52.584;9.694;2023-03-14T03:38:33;98514.59;;;11.32;71.12
77147;BME280;66121;52.584;9.694;2023-03-14T03:41:02;98505.22;;;11.30;71.13
77147;BME280;66121;52.584;9.694;2023-03-14T03:43:27;98508.84;;;11.27;71.56
77147;BME280;66121;52.584;9.694;2023-03-14T03:45:53;98496.38;;;11.22;71.91
77147;BME280;66121;52.584;9.694;2023-03-14T03:48:18;98487.09;;;11.16;72.22
77147;BME280;66121;52.584;9.694;2023-03-14T03:50:45;98501.00;;;11.13;72.76
77147;BME280;66121;52.584;9.694;2023-03-14T03:53:10;98507.28;;;11.13;73.57
77147;BME280;66121;52.584;9.694;2023-03-14T03:55:35;98521.09;;;11.13;73.90
77147;BME280;66121;52.584;9.694;2023-03-14T03:58:01;98530.00;;;11.05;74.84
77147;BME280;66121;52.584;9.694;2023-03-14T04:00:26;98556.00;;;10.78;78.03
77147;BME280;66121;52.584;9.694;2023-03-14T04:02:51;98562.81;;;10.29;81.12
77147;BME280;66121;52.584;9.694;2023-03-14T04:05:17;98568.06;;;9.91;83.01
77147;BME280;66121;52.584;9.694;2023-03-14T04:07:42;98557.69;;;9.63;82.85
77147;BME280;66121;52.584;9.694;2023-03-14T04:10:07;98550.69;;;9.42;83.99
77147;BME280;66121;52.584;9.694;2023-03-14T04:12:33;98543.59;;;9.25;84.06
77147;BME280;66121;52.584;9.694;2023-03-14T04:14:58;98544.59;;;9.15;83.88
77147;BME280;66121;52.584;9.694;2023-03-14T04:17:24;98534.53;;;9.08;84.10
77147;BME280;66121;52.584;9.694;2023-03-14T04:19:49;98539.69;;;9.06;84.24
77147;BME280;66121;52.584;9.694;2023-03-14T04:22:16;98537.97;;;8.93;85.48
77147;BME280;66121;52.584;9.694;2023-03-14T04:24:41;98545.09;;;8.90;84.47
77147;BME280;66121;52.584;9.694;2023-03-14T04:27:06;98548.28;;;8.89;83.93
77147;BME280;66121;52.584;9.694;2023-03-14T04:29:32;98546.72;;;8.88;83.54
77147;BME280;66121;52.584;9.694;2023-03-14T04:31:57;98542.59;;;8.80;84.29
77147;BME280;66121;52.584;9.694;2023-03-14T04:34:22;98538.06;;;8.89;83.50
77147;BME280;66121;52.584;9.694;2023-03-14T04:36:48;98533.47;;;8.83;83.39
77147;BME280;66121;52.584;9.694;2023-03-14T04:39:13;98529.97;;;8.82;83.57
77147;BME280;66121;52.584;9.694;2023-03-14T04:41:38;98532.78;;;8.79;83.49
77147;BME280;66121;52.584;9.694;2023-03-14T04:44:04;98525.03;;;8.74;83.39
77147;BME280;66121;52.584;9.694;2023-03-14T04:46:29;98527.06;;;8.70;83.90
77147;BME280;66121;52.584;9.694;2023-03-14T04:48:54;98523.94;;;8.68;82.91
77147;BME280;66121;52.584;9.694;2023-03-14T04:51:21;98516.13;;;8.66;82.78
77147;BME280;66121;52.584;9.694;2023-03-14T04:53:48;98514.16;;;8.67;83.17
77147;BME280;66121;52.584;9.694;2023-03-14T04:56:13;98505.34;;;8.75;82.79
77147;BME280;66121;52.584;9.694;2023-03-14T04:58:39;98490.13;;;8.71;81.87
77147;BME280;66121;52.584;9.694;2023-03-14T05:01:04;98499.19;;;8.68;82.70
77147;BME280;66121;52.584;9.694;2023-03-14T05:03:30;98499.28;;;8.64;83.20
77147;BME280;66121;52.584;9.694;2023-03-14T05:05:55;98492.22;;;8.63;82.37
77147;BME280;66121;52.584;9.694;2023-03-14T05:08:22;98490.63;;;8.66;82.38
77147;BME280;66121;52.584;9.694;2023-03-14T05:10:55;98489.78;;;8.69;82.60
77147;BME280;66121;52.584;9.694;2023-03-14T05:13:21;98476.47;;;8.67;81.96
77147;BME280;66121;52.584;9.694;2023-03-14T05:15:46;98477.59;;;8.70;82.05
77147;BME280;66121;52.584;9.694;2023-03-14T05:18:12;98486.38;;;8.61;82.37
77147;BME280;66121;52.584;9.694;2023-03-14T05:20:37;98485.13;;;8.46;83.04
77147;BME280;66121;52.584;9.694;2023-03-14T05:23:02;98472.94;;;8.47;82.27
77147;BME280;66121;52.584;9.694;2023-03-14T05:25:28;98484.63;;;8.51;82.51
77147;BME280;66121;52.584;9.694;2023-03-14T05:27:54;98477.72;;;8.63;82.17
77147;BME280;66121;52.584;9.694;2023-03-14T05:30:20;98478.34;;;8.51;82.07
77147;BME280;66121;52.584;9.694;2023-03-14T05:32:46;98473.00;;;8.43;82.75
77147;BME280;66121;52.584;9.694;2023-03-14T05:35:12;98480.81;;;8.45;82.24
77147;BME280;66121;52.584;9.694;2023-03-14T05:37:37;98481.31;;;8.40;81.99
77147;BME280;66121;52.584;9.694;2023-03-14T05:40:04;98496.59;;;8.41;82.51
77147;BME280;66121;52.584;9.694;2023-03-14T05:42:31;98487.38;;;8.51;81.61
77147;BME280;66121;52.584;9.694;2023-03-14T05:44:57;98476.22;;;8.58;81.20
77147;BME280;66121;52.584;9.694;2023-03-14T05:47:22;98489.78;;;8.69;80.64
77147;BME280;66121;52.584;9.694;2023-03-14T05:49:47;98486.09;;;8.56;81.76
77147;BME280;66121;52.584;9.694;2023-03-14T05:52:13;98485.41;;;8.52;81.91
77147;BME280;66121;52.584;9.694;2023-03-14T05:54:38;98480.69;;;8.52;82.40
77147;BME280;66121;52.584;9.694;2023-03-14T05:57:04;98487.09;;;8.46;82.34
77147;BME280;66121;52.584;9.694;2023-03-14T05:59:29;98481.25;;;8.43;82.60
77147;BME280;66121;52.584;9.694;2023-03-14T06:01:54;98485.06;;;8.50;82.78
77147;BME280;66121;52.584;9.694;2023-03-14T06:04:20;98486.94;;;8.53;82.65
77147;BME280;66121;52.584;9.694;2023-03-14T06:06:45;98491.59;;;8.56;82.93
77147;BME280;66121;52.584;9.694;2023-03-14T06:09:11;98482.22;;;8.53;82.71
77147;BME280;66121;52.584;9.694;2023-03-14T06:11:37;98486.88;;;8.56;82.98
77147;BME280;66121;52.584;9.694;2023-03-14T06:14:02;98489.00;;;8.68;82.63
77147;BME280;66121;52.584;9.694;2023-03-14T06:16:27;98495.13;;;8.76;82.40
77147;BME280;66121;52.584;9.694;2023-03-14T06:18:53;98485.88;;;8.86;82.26
77147;BME280;66121;52.584;9.694;2023-03-14T06:21:18;98492.38;;;8.76;82.38
77147;BME280;66121;52.584;9.694;2023-03-14T06:23:45;98490.34;;;8.80;81.92
77147;BME280;66121;52.584;9.694;2023-03-14T06:26:10;98499.81;;;8.95;81.47
77147;BME280;66121;52.584;9.694;2023-03-14T06:28:37;98499.31;;;9.00;81.31
77147;BME280;66121;52.584;9.694;2023-03-14T06:31:02;98493.31;;;9.05;81.08
77147;BME280;66121;52.584;9.694;2023-03-14T06:33:27;98485.94;;;9.02;82.04
77147;BME280;66121;52.584;9.694;2023-03-14T06:35:53;98497.19;;;9.27;80.36
77147;BME280;66121;52.584;9.694;2023-03-14T06:38:18;98494.94;;;9.38;81.21
77147;BME280;66121;52.584;9.694;2023-03-14T06:40:43;98494.88;;;9.42;80.19
77147;BME280;66121;52.584;9.694;2023-03-14T06:43:09;98503.03;;;9.45;80.21
77147;BME280;66121;52.584;9.694;2023-03-14T06:45:34;98498.56;;;9.51;80.11
77147;BME280;66121;52.584;9.694;2023-03-14T06:47:59;98496.94;;;9.54;79.68
77147;BME280;66121;52.584;9.694;2023-03-14T06:50:24;98500.47;;;9.54;79.37
77147;BME280;66121;52.584;9.694;2023-03-14T06:52:50;98502.88;;;9.52;79.37
77147;BME280;66121;52.584;9.694;2023-03-14T06:55:15;98507.25;;;9.50;79.80
77147;BME280;66121;52.584;9.694;2023-03-14T06:57:41;98502.53;;;9.50;79.61
77147;BME280;66121;52.584;9.694;2023-03-14T07:00:07;98505.28;;;9.50;79.44
77147;BME280;66121;52.584;9.694;2023-03-14T07:02:33;98514.75;;;9.49;79.64
77147;BME280;66121;52.584;9.694;2023-03-14T07:04:58;98520.09;;;9.56;79.81
77147;BME280;66121;52.584;9.694;2023-03-14T07:07:24;98513.28;;;9.61;78.95
77147;BME280;66121;52.584;9.694;2023-03-14T07:09:49;98522.06;;;9.56;78.94
77147;BME280;66121;52.584;9.694;2023-03-14T07:12:14;98525.25;;;9.54;78.94
77147;BME280;66121;52.584;9.694;2023-03-14T07:14:40;98524.47;;;9.54;79.40
77147;BME280;66121;52.584;9.694;2023-03-14T07:17:05;98521.22;;;9.59;78.23
77147;BME280;66121;52.584;9.694;2023-03-14T07:19:30;98536.09;;;9.61;78.00
77147;BME280;66121;52.584;9.694;2023-03-14T07:21:56;98528.34;;;9.56;78.52
77147;BME280;66121;52.584;9.694;2023-03-14T07:24:22;98528.75;;;9.55;78.51
77147;BME280;66121;52.584;9.694;2023-03-14T07:26:47;98530.75;;;9.54;78.86
77147;BME280;66121;52.584;9.694;2023-03-14T07:29:12;98524.25;;;9.64;78.35
77147;BME280;66121;52.584;9.694;2023-03-14T07:31:38;98540.06;;;9.77;77.33
77147;BME280;66121;52.584;9.694;2023-03-14T07:34:03;98524.50;;;9.86;77.42
77147;BME280;66121;52.584;9.694;2023-03-14T07:36:28;98518.63;;;10.00;77.44
77147;BME280;66121;52.584;9.694;2023-03-14T07:38:54;98516.13;;;10.06;77.39
77147;BME280;66121;52.584;9.694;2023-03-14T07:41:19;98528.00;;;10.03;75.05
77147;BME280;66121;52.584;9.694;2023-03-14T07:43:46;98511.94;;;10.01;76.26
77147;BME280;66121;52.584;9.694;2023-03-14T07:46:11;98521.56;;;10.09;75.76
77147;BME280;66121;52.584;9.694;2023-03-14T07:48:36;98520.28;;;10.14;75.59
77147;BME280;66121;52.584;9.694;2023-03-14T07:51:01;98523.97;;;10.23;74.77
77147;BME280;66121;52.584;9.694;2023-03-14T07:53:27;98523.00;;;10.30;75.26
77147;BME280;66121;52.584;9.694;2023-03-14T07:55:53;98530.59;;;10.26;75.34
77147;BME280;66121;52.584;9.694;2023-03-14T07:58:19;98508.41;;;10.17;73.50
77147;BME280;66121;52.584;9.694;2023-03-14T08:00:44;98526.81;;;10.20;74.21
77147;BME280;66121;52.584;9.694;2023-03-14T08:03:10;98527.94;;;10.22;74.42
77147;BME280;66121;52.584;9.694;2023-03-14T08:05:36;98533.50;;;10.35;73.63
77147;BME280;66121;52.584;9.694;2023-03-14T08:08:02;98533.31;;;10.42;73.03
77147;BME280;66121;52.584;9.694;2023-03-14T08:10:27;98532.66;;;10.38;73.12
77147;BME280;66121;52.584;9.694;2023-03-14T08:12:55;98524.97;;;10.46;74.19
77147;BME280;66121;52.584;9.694;2023-03-14T08:15:21;98521.19;;;10.40;73.58
77147;BME280;66121;52.584;9.694;2023-03-14T08:17:47;98513.22;;;10.58;73.86
77147;BME280;66121;52.584;9.694;2023-03-14T08:20:17;98523.91;;;10.56;73.41
77147;BME280;66121;52.584;9.694;2023-03-14T08:22:42;98527.44;;;10.56;73.84
77147;BME280;66121;52.584;9.694;2023-03-14T08:25:07;98529.50;;;10.52;74.40
77147;BME280;66121;52.584;9.694;2023-03-14T08:27:33;98523.56;;;10.54;74.09
77147;BME280;66121;52.584;9.694;2023-03-14T08:29:58;98526.81;;;10.65;73.92
77147;BME280;66121;52.584;9.694;2023-03-14T08:32:23;98528.19;;;10.85;73.31
77147;BME280;66121;52.584;9.694;2023-03-14T08:34:49;98540.56;;;10.81;73.18
77147;BME280;66121;52.584;9.694;2023-03-14T08:37:14;98542.28;;;10.75;73.67
77147;BME280;66121;52.584;9.694;2023-03-14T08:39:40;98535.19;;;10.61;73.53
77147;BME280;66121;52.584;9.694;2023-03-14T08:42:05;98530.47;;;10.46;75.59
77147;BME280;66121;52.584;9.694;2023-03-14T08:44:30;98533.25;;;10.46;75.77
77147;BME280;66121;52.584;9.694;2023-03-14T08:46:55;98539.66;;;10.26;77.98
77147;BME280;66121;52.584;9.694;2023-03-14T08:49:21;98538.72;;;9.85;83.01
77147;BME280;66121;52.584;9.694;2023-03-14T08:51:46;98537.63;;;9.46;85.44
77147;BME280;66121;52.584;9.694;2023-03-14T08:54:12;98542.28;;;9.49;84.92
77147;BME280;66121;52.584;9.694;2023-03-14T08:56:37;98542.47;;;9.58;85.44
77147;BME280;66121;52.584;9.694;2023-03-14T08:59:03;98529.53;;;9.39;84.12
77147;BME280;66121;52.584;9.694;2023-03-14T09:01:28;98536.72;;;9.85;83.68
77147;BME280;66121;52.584;9.694;2023-03-14T09:03:54;98543.69;;;9.90;83.29
77147;BME280;66121;52.584;9.694;2023-03-14T09:06:19;98543.25;;;9.75;83.30
77147;BME280;66121;52.584;9.694;2023-03-14T09:08:45;98545.47;;;9.80;83.50
77147;BME280;66121;52.584;9.694;2023-03-14T09:11:10;98546.44;;;9.73;83.93
77147;BME280;66121;52.584;9.694;2023-03-14T09:13:36;98548.25;;;9.64;85.38
77147;BME280;66121;52.584;9.694;2023-03-14T09:16:01;98542.19;;;9.53;85.11
77147;BME280;66121;52.584;9.694;2023-03-14T09:18:26;98545.16;;;9.62;86.02
77147;BME280;66121;52.584;9.694;2023-03-14T09:20:52;98546.00;;;9.75;85.74
77147;BME280;66121;52.584;9.694;2023-03-14T09:23:17;98546.16;;;9.68;85.79
77147;BME280;66121;52.584;9.694;2023-03-14T09:25:42;98553.22;;;9.69;85.70
77147;BME280;66121;52.584;9.694;2023-03-14T09:28:07;98569.56;;;9.60;86.44
77147;BME280;66121;52.584;9.694;2023-03-14T09:30:33;98566.38;;;9.61;86.57
77147;BME280;66121;52.584;9.694;2023-03-14T09:32:58;98569.09;;;9.81;87.18
77147;BME280;66121;52.584;9.694;2023-03-14T09:35:24;98568.56;;;9.86;86.48
77147;BME280;66121;52.584;9.694;2023-03-14T09:37:50;98563.50;;;9.85;86.39
77147;BME280;66121;52.584;9.694;2023-03-14T09:40:16;98561.59;;;9.82;85.69
77147;BME280;66121;52.584;9.694;2023-03-14T09:42:43;98545.16;;;9.78;86.38
77147;BME280;66121;52.584;9.694;2023-03-14T09:45:36;98557.19;;;10.32;84.21
77147;BME280;66121;52.584;9.694;2023-03-14T09:48:03;98551.41;;;10.59;83.83
77147;BME280;66121;52.584;9.694;2023-03-14T09:50:45;98547.97;;;10.84;82.52
77147;BME280;66121;52.584;9.694;2023-03-14T09:53:17;98554.47;;;10.90;82.27
77147;BME280;66121;52.584;9.694;2023-03-14T09:55:45;98555.34;;;10.87;81.90
77147;BME280;66121;52.584;9.694;2023-03-14T09:58:14;98552.97;;;11.02;80.94
77147;BME280;66121;52.584;9.694;2023-03-14T10:00:41;98551.78;;;11.15;80.87
77147;BME280;66121;52.584;9.694;2023-03-14T10:05:38;98542.00;;;11.39;79.26
77147;BME280;66121;52.584;9.694;2023-03-14T10:08:04;98543.00;;;11.58;78.13
77147;BME280;66121;52.584;9.694;2023-03-14T10:10:30;98546.75;;;11.39;79.14
77147;BME280;66121;52.584;9.694;2023-03-14T10:15:35;98530.59;;;11.25;78.15
77147;BME280;66121;52.584;9.694;2023-03-14T10:18:05;98541.44;;;11.57;77.09
77147;BME280;66121;52.584;9.694;2023-03-14T10:20:42;98535.28;;;11.53;77.39
77147;BME280;66121;52.584;9.694;2023-03-14T10:25:39;98538.94;;;10.96;78.28
77147;BME280;66121;52.584;9.694;2023-03-14T10:28:05;98538.38;;;10.88;78.55
77147;BME280;66121;52.584;9.694;2023-03-14T10:30:44;98539.78;;;10.80;79.19
77147;BME280;66121;52.584;9.694;2023-03-14T10:35:42;98553.59;;;10.93;80.96
77147;BME280;66121;52.584;9.694;2023-03-14T10:38:13;98550.16;;;10.76;81.11
77147;BME280;66121;52.584;9.694;2023-03-14T10:40:42;98554.63;;;10.70;82.28
77147;BME280;66121;52.584;9.694;2023-03-14T10:43:16;98567.63;;;10.70;84.66
77147;BME280;66121;52.584;9.694;2023-03-14T10:45:43;98557.34;;;10.58;85.06
77147;BME280;66121;52.584;9.694;2023-03-14T10:48:38;98562.44;;;10.43;85.92
77147;BME280;66121;52.584;9.694;2023-03-14T10:51:10;98557.31;;;10.13;87.14
77147;BME280;66121;52.584;9.694;2023-03-14T10:53:50;98574.34;;;10.08;88.28
77147;BME280;66121;52.584;9.694;2023-03-14T10:56:21;98564.97;;;9.89;90.48
77147;BME280;66121;52.584;9.694;2023-03-14T10:58:49;98575.25;;;9.69;90.70
77147;BME280;66121;52.584;9.694;2023-03-14T11:01:39;98592.09;;;9.55;90.28
77147;BME280;66121;52.584;9.694;2023-03-14T11:04:20;98668.13;;;9.10;86.24
77147;BME280;66121;52.584;9.694;2023-03-14T11:07:01;98679.34;;;8.29;85.47
77147;BME280;66121;52.584;9.694;2023-03-14T11:09:53;98688.44;;;7.66;87.00
77147;BME280;66121;52.584;9.694;2023-03-14T11:12:43;98699.09;;;7.60;88.08
77147;BME280;66121;52.584;9.694;2023-03-14T11:15:18;98720.16;;;7.37;86.31
77147;BME280;66121;52.584;9.694;2023-03-14T11:18:13;98736.44;;;7.17;86.35
77147;BME280;66121;52.584;9.694;2023-03-14T11:21:01;98752.84;;;7.21;87.54
77147;BME280;66121;52.584;9.694;2023-03-14T11:26:13;98756.19;;;7.01;87.59
77147;BME280;66121;52.584;9.694;2023-03-14T11:28:48;98771.25;;;6.83;88.33
77147;BME280;66121;52.584;9.694;2023-03-14T11:31:29;98787.41;;;6.67;88.04
77147;BME280;66121;52.584;9.694;2023-03-14T11:36:38;98811.63;;;6.75;89.02
77147;BME280;66121;52.584;9.694;2023-03-14T11:39:19;98798.44;;;6.56;86.63
77147;BME280;66121;52.584;9.694;2023-03-14T11:41:46;98811.03;;;6.50;85.96
77147;BME280;66121;52.584;9.694;2023-03-14T11:47:08;98834.41;;;5.89;84.62
77147;BME280;66121;52.584;9.694;2023-03-14T11:49:40;98857.09;;;5.75;85.57
77147;BME280;66121;52.584;9.694;2023-03-14T11:54:59;98877.84;;;5.41;85.20
77147;BME280;66121;52.584;9.694;2023-03-14T11:57:25;98911.88;;;5.22;85.46
77147;BME280;66121;52.584;9.694;2023-03-14T12:00:17;98911.03;;;4.73;86.07
77147;BME280;66121;52.584;9.694;2023-03-14T12:03:05;98911.78;;;4.63;85.99
77147;BME280;66121;52.584;9.694;2023-03-14T12:05:48;98940.31;;;4.76;86.12
77147;BME280;66121;52.584;9.694;2023-03-14T12:08:46;98945.78;;;4.90;86.38
77147;BME280;66121;52.584;9.694;2023-03-14T12:13:53;98978.09;;;4.60;86.92
77147;BME280;66121;52.584;9.694;2023-03-14T12:16:30;98980.91;;;4.84;87.16
77147;BME280;66121;52.584;9.694;2023-03-14T12:18:56;98993.00;;;4.80;88.12
77147;BME280;66121;52.584;9.694;2023-03-14T12:21:24;99009.00;;;4.81;88.36
77147;BME280;66121;52.584;9.694;2023-03-14T12:23:59;98997.31;;;4.88;88.26
77147;BME280;66121;52.584;9.694;2023-03-14T12:26:26;99029.31;;;4.84;86.41
77147;BME280;66121;52.584;9.694;2023-03-14T12:45:26;99115.75;;;4.41;85.91
77147;BME280;66121;52.584;9.694;2023-03-14T12:47:55;99135.81;;;4.70;86.40
77147;BME280;66121;52.584;9.694;2023-03-14T12:50:25;99135.91;;;4.87;83.58
77147;BME280;66121;52.584;9.694;2023-03-14T12:55:58;99130.66;;;5.40;82.58
77147;BME280;66121;52.584;9.694;2023-03-14T13:01:04;99130.19;;;5.13;82.59
77147;BME280;66121;52.584;9.694;2023-03-14T13:03:47;99150.88;;;5.14;83.17
77147;BME280;66121;52.584;9.694;2023-03-14T13:06:53;99154.44;;;5.26;83.17
77147;BME280;66121;52.584;9.694;2023-03-14T13:12:09;99179.19;;;5.61;83.54
77147;BME280;66121;52.584;9.694;2023-03-14T13:14:35;99188.66;;;5.84;84.61
77147;BME280;66121;52.584;9.694;2023-03-14T13:17:10;99190.59;;;5.80;81.44
77147;BME280;66121;52.584;9.694;2023-03-14T13:19:36;99203.88;;;5.82;80.64
77147;BME280;66121;52.584;9.694;2023-03-14T13:22:04;99204.75;;;6.07;83.06
77147;BME280;66121;52.584;9.694;2023-03-14T13:24:33;99213.38;;;6.27;81.64
77147;BME280;66121;52.584;9.694;2023-03-14T13:26:59;99218.47;;;6.74;79.82
77147;BME280;66121;52.584;9.694;2023-03-14T13:29:27;99220.41;;;6.91;79.07
77147;BME280;66121;52.584;9.694;2023-03-14T13:31:55;99236.06;;;6.94;79.19
77147;BME280;66121;52.584;9.694;2023-03-14T13:34:34;99236.84;;;6.91;79.01
77147;BME280;66121;52.584;9.694;2023-03-14T13:37:00;99247.78;;;7.05;79.98
77147;BME280;66121;52.584;9.694;2023-03-14T13:39:28;99250.53;;;7.09;78.93
77147;BME280;66121;52.584;9.694;2023-03-14T13:41:58;99246.66;;;6.92;76.43
77147;BME280;66121;52.584;9.694;2023-03-14T13:44:38;99259.97;;;6.83;78.59
77147;BME280;66121;52.584;9.694;2023-03-14T13:47:09;99263.09;;;6.57;80.56
77147;BME280;66121;52.584;9.694;2023-03-14T13:49:37;99308.88;;;6.46;81.72
77147;BME280;66121;52.584;9.694;2023-03-14T13:52:04;99311.50;;;5.93;82.00
77147;BME280;66121;52.584;9.694;2023-03-14T13:54:46;99335.81;;;5.44;80.82
77147;BME280;66121;52.584;9.694;2023-03-14T13:57:11;99348.28;;;4.87;81.86
77147;BME280;66121;52.584;9.694;2023-03-14T13:59:36;99332.63;;;4.80;83.02
77147;BME280;66121;52.584;9.694;2023-03-14T14:02:14;99339.97;;;4.73;82.56
77147;BME280;66121;52.584;9.694;2023-03-14T14:04:40;99352.56;;;4.84;83.97
77147;BME280;66121;52.584;9.694;2023-03-14T14:07:12;99364.88;;;5.08;84.45
77147;BME280;66121;52.584;9.694;2023-03-14T14:09:40;99368.84;;;5.21;84.31